sensor_id;sensor_type;location;lat;lon;timestamp;temperature;humidity
10129;DHT22;5104;50.720;7.044;2024-03-07T00:00:51;4.50;99.90
10129;DHT22;5104;50.720;7.044;2024-03-07T00:03:20;4.60;99.90
10129;DHT22;5104;50.720;7.044;2024-03-07T00:05:49;4.60;99.90
10129;DHT22;5104;50.720;7.044;2024-03-07T00:08:16;4.70;99.90
10129;DHT22;5104;50.720;7.044;2024-03-07T00:10:43;4.60;1.00
10129;DHT22;5104;50.720;7.044;2024-03-07T00:13:11;4.60;1.00
10129;DHT22;5104;50.720;7.044;2024-03-07T00:15:38;4.60;1.00
10129;DHT22;5104;50.720;7.044;2024-03-07T00:18:08;4.50;1.00
10129;DHT22;5104;50.720;7.044;2024-03-07T00:20:36;4.40;1.00
10129;DHT22;5104;50.720;7.044;2024-03-07T00:23:03;4.30;99.90
10129;DHT22;5104;50.720;7.044;2024-03-07T00:25:30;4.30;4.70
10129;DHT22;5104;50.720;7.044;2024-03-07T00:27:57;4.30;26.60
10129;DHT22;5104;50.720;7.044;2024-03-07T00:30:28;4.30;99.90
10129;DHT22;5104;50.720;7.044;2024-03-07T00:32:55;4.30;1.00
10129;DHT22;5104;50.720;7.044;2024-03-07T00:35:24;4.20;99.90
10129;DHT22;5104;50.720;7.044;2024-03-07T00:37:51;4.20;1.00
10129;DHT22;5104;50.720;7.044;2024-03-07T00:40:18;4.20;99.90
10129;DHT22;5104;50.720;7.044;2024-03-07T00:42:46;4.20;62.50
10129;DHT22;5104;50.720;7.044;2024-03-07T00:45:13;4.10;99.90
10129;DHT22;5104;50.720;7.044;2024-03-07T00:47:40;4.10;1.00
10129;DHT22;5104;50.720;7.044;2024-03-07T00:50:08;4.10;1.00
10129;DHT22;5104;50.720;7.044;2024-03-07T00:52:37;4.00;1.00
10129;DHT22;5104;50.720;7.044;2024-03-07T00:55:05;3.90;1.00
10129;DHT22;5104;50.720;7.044;2024-03-07T00:57:34;3.90;99.90
10129;DHT22;5104;50.720;7.044;2024-03-07T01:00:01;3.90;64.50
10129;DHT22;5104;50.720;7.044;2024-03-07T01:02:28;4.00;99.90
10129;DHT22;5104;50.720;7.044;2024-03-07T01:04:55;3.90;1.00
10129;DHT22;5104;50.720;7.044;2024-03-07T01:07:22;3.90;99.90
10129;DHT22;5104;50.720;7.044;2024-03-07T01:09:50;3.80;1.00
10129;DHT22;5104;50.720;7.044;2024-03-07T01:12:17;3.80;1.00
10129;DHT22;5104;50.720;7.044;2024-03-07T01:14:45;3.70;1.00
10129;DHT22;5104;50.720;7.044;2024-03-07T01:17:12;3.70;1.00
10129;DHT22;5104;50.720;7.044;2024-03-07T01:19:39;3.70;1.00
10129;DHT22;5104;50.720;7.044;2024-03-07T01:22:06;3.60;99.90
10129;DHT22;5104;50.720;7.044;2024-03-07T01:24:33;3.60;1.00
10129;DHT22;5104;50.720;7.044;2024-03-07T01:27:02;3.50;1.00
10129;DHT22;5104;50.720;7.044;2024-03-07T01:29:29;3.50;1.00
10129;DHT22;5104;50.720;7.044;2024-03-07T01:31:56;3.50;99.90
10129;DHT22;5104;50.720;7.044;2024-03-07T01:34:23;3.50;1.00
10129;DHT22;5104;50.720;7.044;2024-03-07T01:36:50;3.50;1.00
10129;DHT22;5104;50.720;7.044;2024-03-07T01:39:17;3.50;99.90
10129;DHT22;5104;50.720;7.044;2024-03-07T01:41:45;3.50;1.00
10129;DHT22;5104;50.720;7.044;2024-03-07T01:44:13;3.40;99.90
10129;DHT22;5104;50.720;7.044;2024-03-07T01:46:40;3.30;1.00
10129;DHT22;5104;50.720;7.044;2024-03-07T01:49:08;3.30;99.90
10129;DHT22;5104;50.720;7.044;2024-03-07T01:51:36;3.30;1.00
10129;DHT22;5104;50.720;7.044;2024-03-07T01:54:05;3.30;1.00
10129;DHT22;5104;50.720;7.044;2024-03-07T01:56:35;3.30;1.00
10129;DHT22;5104;50.720;7.044;2024-03-07T01:59:03;3.30;1.00
10129;DHT22;5104;50.720;7.044;2024-03-07T02:01:34;3.30;1.00
10129;DHT22;5104;50.720;7.044;2024-03-07T02:04:02;3.30;1.00
10129;DHT22;5104;50.720;7.044;2024-03-07T02:06:30;3.20;1.00
10129;DHT22;5104;50.720;7.044;2024-03-07T02:08:57;3.30;1.00
10129;DHT22;5104;50.720;7.044;2024-03-07T02:11:24;3.20;1.00
10129;DHT22;5104;50.720;7.044;2024-03-07T02:13:50;3.20;1.00
10129;DHT22;5104;50.720;7.044;2024-03-07T02:16:18;3.20;1.00
10129;DHT22;5104;50.720;7.044;2024-03-07T02:18:47;3.30;1.00
10129;DHT22;5104;50.720;7.044;2024-03-07T02:21:16;3.30;1.00
10129;DHT22;5104;50.720;7.044;2024-03-07T02:23:43;3.20;1.00
10129;DHT22;5104;50.720;7.044;2024-03-07T02:26:10;3.10;1.00
10129;DHT22;5104;50.720;7.044;2024-03-07T02:28:37;3.10;1.00
10129;DHT22;5104;50.720;7.044;2024-03-07T02:31:04;3.10;1.00
10129;DHT22;5104;50.720;7.044;2024-03-07T02:33:31;3.00;1.00
10129;DHT22;5104;50.720;7.044;2024-03-07T02:35:58;3.00;99.90
10129;DHT22;5104;50.720;7.044;2024-03-07T02:38:26;3.00;1.00
10129;DHT22;5104;50.720;7.044;2024-03-07T02:40:53;3.00;84.90
10129;DHT22;5104;50.720;7.044;2024-03-07T02:43:20;3.00;1.00
10129;DHT22;5104;50.720;7.044;2024-03-07T02:45:47;2.90;1.00
10129;DHT22;5104;50.720;7.044;2024-03-07T02:48:15;2.90;1.00
10129;DHT22;5104;50.720;7.044;2024-03-07T02:50:44;2.80;1.00
10129;DHT22;5104;50.720;7.044;2024-03-07T02:53:11;2.90;1.00
10129;DHT22;5104;50.720;7.044;2024-03-07T02:55:39;2.90;99.90
10129;DHT22;5104;50.720;7.044;2024-03-07T02:58:07;2.90;1.00
10129;DHT22;5104;50.720;7.044;2024-03-07T03:00:33;2.90;1.00
10129;DHT22;5104;50.720;7.044;2024-03-07T03:03:00;2.90;1.00
10129;DHT22;5104;50.720;7.044;2024-03-07T03:05:27;2.80;1.00
10129;DHT22;5104;50.720;7.044;2024-03-07T03:07:55;2.80;1.00
10129;DHT22;5104;50.720;7.044;2024-03-07T03:10:23;2.80;17.40
10129;DHT22;5104;50.720;7.044;2024-03-07T03:12:53;2.80;1.00
10129;DHT22;5104;50.720;7.044;2024-03-07T03:15:21;2.80;99.90
10129;DHT22;5104;50.720;7.044;2024-03-07T03:17:49;2.70;1.00
10129;DHT22;5104;50.720;7.044;2024-03-07T03:20:17;2.70;1.00
10129;DHT22;5104;50.720;7.044;2024-03-07T03:22:54;2.60;99.90
10129;DHT22;5104;50.720;7.044;2024-03-07T03:25:21;2.60;1.00
10129;DHT22;5104;50.720;7.044;2024-03-07T03:27:48;2.50;99.90
10129;DHT22;5104;50.720;7.044;2024-03-07T03:30:17;2.50;1.00
10129;DHT22;5104;50.720;7.044;2024-03-07T03:32:45;2.50;99.90
10129;DHT22;5104;50.720;7.044;2024-03-07T03:35:13;2.60;99.90
10129;DHT22;5104;50.720;7.044;2024-03-07T03:37:41;2.60;1.00
10129;DHT22;5104;50.720;7.044;2024-03-07T03:40:09;2.50;1.00
10129;DHT22;5104;50.720;7.044;2024-03-07T03:42:37;2.50;1.00
10129;DHT22;5104;50.720;7.044;2024-03-07T03:45:05;2.50;60.60
10129;DHT22;5104;50.720;7.044;2024-03-07T03:47:35;2.50;99.90
10129;DHT22;5104;50.720;7.044;2024-03-07T03:50:06;2.50;99.90
10129;DHT22;5104;50.720;7.044;2024-03-07T03:52:34;2.50;1.00
10129;DHT22;5104;50.720;7.044;2024-03-07T03:55:02;2.50;1.00
10129;DHT22;5104;50.720;7.044;2024-03-07T03:57:30;2.40;1.00
10129;DHT22;5104;50.720;7.044;2024-03-07T03:59:57;2.40;1.00
10129;DHT22;5104;50.720;7.044;2024-03-07T04:02:24;2.40;1.00
10129;DHT22;5104;50.720;7.044;2024-03-07T04:04:52;2.40;1.00
10129;DHT22;5104;50.720;7.044;2024-03-07T04:07:19;2.30;99.90
10129;DHT22;5104;50.720;7.044;2024-03-07T04:09:47;2.30;99.90
10129;DHT22;5104;50.720;7.044;2024-03-07T04:12:14;2.20;1.00
10129;DHT22;5104;50.720;7.044;2024-03-07T04:14:42;2.30;1.00
10129;DHT22;5104;50.720;7.044;2024-03-07T04:17:09;2.20;1.00
10129;DHT22;5104;50.720;7.044;2024-03-07T04:19:38;2.30;1.00
10129;DHT22;5104;50.720;7.044;2024-03-07T04:22:07;2.20;99.90
10129;DHT22;5104;50.720;7.044;2024-03-07T04:24:34;2.20;99.90
10129;DHT22;5104;50.720;7.044;2024-03-07T04:27:02;2.20;99.90
10129;DHT22;5104;50.720;7.044;2024-03-07T04:29:29;2.20;99.90
10129;DHT22;5104;50.720;7.044;2024-03-07T04:31:56;2.20;1.00
10129;DHT22;5104;50.720;7.044;2024-03-07T04:34:23;2.20;1.00
10129;DHT22;5104;50.720;7.044;2024-03-07T04:36:50;2.30;99.90
10129;DHT22;5104;50.720;7.044;2024-03-07T04:39:18;2.20;1.00
10129;DHT22;5104;50.720;7.044;2024-03-07T04:41:53;2.10;1.00
10129;DHT22;5104;50.720;7.044;2024-03-07T04:44:20;2.20;1.00
10129;DHT22;5104;50.720;7.044;2024-03-07T04:46:48;2.20;99.90
10129;DHT22;5104;50.720;7.044;2024-03-07T04:49:16;2.30;99.90
10129;DHT22;5104;50.720;7.044;2024-03-07T04:51:43;2.40;99.90
10129;DHT22;5104;50.720;7.044;2024-03-07T04:54:10;2.40;99.90
10129;DHT22;5104;50.720;7.044;2024-03-07T04:56:38;2.60;1.00
10129;DHT22;5104;50.720;7.044;2024-03-07T04:59:05;2.70;99.90
10129;DHT22;5104;50.720;7.044;2024-03-07T05:01:32;2.70;99.90
10129;DHT22;5104;50.720;7.044;2024-03-07T05:03:59;2.70;1.00
10129;DHT22;5104;50.720;7.044;2024-03-07T05:06:26;2.80;1.00
10129;DHT22;5104;50.720;7.044;2024-03-07T05:08:54;2.80;1.00
10129;DHT22;5104;50.720;7.044;2024-03-07T05:11:21;2.90;99.90
10129;DHT22;5104;50.720;7.044;2024-03-07T05:13:49;2.90;99.90
10129;DHT22;5104;50.720;7.044;2024-03-07T05:16:16;3.00;1.00
10129;DHT22;5104;50.720;7.044;2024-03-07T05:18:45;3.00;68.30
10129;DHT22;5104;50.720;7.044;2024-03-07T05:21:12;3.10;1.00
10129;DHT22;5104;50.720;7.044;2024-03-07T05:23:53;3.10;1.00
10129;DHT22;5104;50.720;7.044;2024-03-07T05:26:20;3.20;1.00
10129;DHT22;5104;50.720;7.044;2024-03-07T05:28:48;3.20;99.90
10129;DHT22;5104;50.720;7.044;2024-03-07T05:31:15;3.20;99.90
10129;DHT22;5104;50.720;7.044;2024-03-07T05:33:43;3.30;99.90
10129;DHT22;5104;50.720;7.044;2024-03-07T05:36:10;3.30;99.90
10129;DHT22;5104;50.720;7.044;2024-03-07T05:38:40;3.30;99.30
10129;DHT22;5104;50.720;7.044;2024-03-07T05:41:09;3.30;25.30
10129;DHT22;5104;50.720;7.044;2024-03-07T05:43:36;3.30;1.00
10129;DHT22;5104;50.720;7.044;2024-03-07T05:46:04;3.30;10.80
10129;DHT22;5104;50.720;7.044;2024-03-07T05:48:32;3.30;99.90
10129;DHT22;5104;50.720;7.044;2024-03-07T05:51:00;3.40;99.90
10129;DHT22;5104;50.720;7.044;2024-03-07T05:53:27;3.50;99.90
10129;DHT22;5104;50.720;7.044;2024-03-07T05:55:54;3.50;99.90
10129;DHT22;5104;50.720;7.044;2024-03-07T05:58:21;3.50;99.90
10129;DHT22;5104;50.720;7.044;2024-03-07T06:00:48;3.60;1.00
10129;DHT22;5104;50.720;7.044;2024-03-07T06:03:18;3.60;1.00
10129;DHT22;5104;50.720;7.044;2024-03-07T06:05:46;3.50;99.90
10129;DHT22;5104;50.720;7.044;2024-03-07T06:08:14;3.60;99.90
10129;DHT22;5104;50.720;7.044;2024-03-07T06:10:43;3.70;99.90
10129;DHT22;5104;50.720;7.044;2024-03-07T06:13:10;3.70;99.90
10129;DHT22;5104;50.720;7.044;2024-03-07T06:15:38;3.80;99.90
10129;DHT22;5104;50.720;7.044;2024-03-07T06:18:05;3.90;99.90
10129;DHT22;5104;50.720;7.044;2024-03-07T06:20:34;3.80;99.90
10129;DHT22;5104;50.720;7.044;2024-03-07T06:23:01;3.90;99.90
10129;DHT22;5104;50.720;7.044;2024-03-07T06:25:30;3.90;99.90
10129;DHT22;5104;50.720;7.044;2024-03-07T06:28:03;3.90;1.00
10129;DHT22;5104;50.720;7.044;2024-03-07T06:30:35;3.90;1.00
10129;DHT22;5104;50.720;7.044;2024-03-07T06:33:03;3.90;67.80
10129;DHT22;5104;50.720;7.044;2024-03-07T06:35:30;4.00;93.00
10129;DHT22;5104;50.720;7.044;2024-03-07T06:37:58;4.00;99.90
10129;DHT22;5104;50.720;7.044;2024-03-07T06:40:25;4.10;99.90
10129;DHT22;5104;50.720;7.044;2024-03-07T06:42:52;4.00;99.90
10129;DHT22;5104;50.720;7.044;2024-03-07T06:45:19;4.10;99.90
10129;DHT22;5104;50.720;7.044;2024-03-07T06:47:46;4.10;99.90
10129;DHT22;5104;50.720;7.044;2024-03-07T06:50:13;4.10;99.90
10129;DHT22;5104;50.720;7.044;2024-03-07T06:52:42;4.20;99.90
10129;DHT22;5104;50.720;7.044;2024-03-07T06:55:11;4.40;93.70
10129;DHT22;5104;50.720;7.044;2024-03-07T06:57:38;4.30;1.00
10129;DHT22;5104;50.720;7.044;2024-03-07T07:00:06;4.40;63.90
10129;DHT22;5104;50.720;7.044;2024-03-07T07:02:37;4.40;99.90
10129;DHT22;5104;50.720;7.044;2024-03-07T07:05:05;4.40;38.30
10129;DHT22;5104;50.720;7.044;2024-03-07T07:07:36;4.40;99.90
10129;DHT22;5104;50.720;7.044;2024-03-07T07:10:04;4.60;99.90
10129;DHT22;5104;50.720;7.044;2024-03-07T07:12:35;4.70;1.00
10129;DHT22;5104;50.720;7.044;2024-03-07T07:15:03;4.90;1.00
10129;DHT22;5104;50.720;7.044;2024-03-07T07:17:30;4.90;99.90
10129;DHT22;5104;50.720;7.044;2024-03-07T07:19:58;5.00;99.90
10129;DHT22;5104;50.720;7.044;2024-03-07T07:22:25;5.00;98.10
10129;DHT22;5104;50.720;7.044;2024-03-07T07:24:52;5.00;99.90
10129;DHT22;5104;50.720;7.044;2024-03-07T07:27:19;5.00;99.90
10129;DHT22;5104;50.720;7.044;2024-03-07T07:29:48;5.00;99.90
10129;DHT22;5104;50.720;7.044;2024-03-07T07:32:15;5.10;99.90
10129;DHT22;5104;50.720;7.044;2024-03-07T07:34:42;5.10;32.60
10129;DHT22;5104;50.720;7.044;2024-03-07T07:37:09;5.30;3.70
10129;DHT22;5104;50.720;7.044;2024-03-07T07:39:36;5.40;1.00
10129;DHT22;5104;50.720;7.044;2024-03-07T07:42:04;5.50;1.00
10129;DHT22;5104;50.720;7.044;2024-03-07T07:44:30;5.70;1.00
10129;DHT22;5104;50.720;7.044;2024-03-07T07:47:00;5.80;99.90
10129;DHT22;5104;50.720;7.044;2024-03-07T07:49:27;6.00;99.90
10129;DHT22;5104;50.720;7.044;2024-03-07T07:51:54;6.10;27.00
10129;DHT22;5104;50.720;7.044;2024-03-07T07:54:21;6.10;1.00
10129;DHT22;5104;50.720;7.044;2024-03-07T07:56:48;6.20;1.00
10129;DHT22;5104;50.720;7.044;2024-03-07T07:59:16;6.20;1.00
10129;DHT22;5104;50.720;7.044;2024-03-07T08:01:43;6.30;1.00
10129;DHT22;5104;50.720;7.044;2024-03-07T08:04:12;6.30;1.00
10129;DHT22;5104;50.720;7.044;2024-03-07T08:06:38;6.30;99.90
10129;DHT22;5104;50.720;7.044;2024-03-07T08:09:06;6.30;99.90
10129;DHT22;5104;50.720;7.044;2024-03-07T08:11:36;6.40;99.90
10129;DHT22;5104;50.720;7.044;2024-03-07T08:14:03;6.50;53.80
10129;DHT22;5104;50.720;7.044;2024-03-07T08:16:31;6.60;1.00
10129;DHT22;5104;50.720;7.044;2024-03-07T08:18:59;6.70;1.00
10129;DHT22;5104;50.720;7.044;2024-03-07T08:21:27;6.80;1.00
10129;DHT22;5104;50.720;7.044;2024-03-07T08:23:54;6.90;99.90
10129;DHT22;5104;50.720;7.044;2024-03-07T08:26:21;7.00;99.90
10129;DHT22;5104;50.720;7.044;2024-03-07T08:28:48;6.90;29.10
10129;DHT22;5104;50.720;7.044;2024-03-07T08:31:15;7.00;4.50
10129;DHT22;5104;50.720;7.044;2024-03-07T08:33:42;7.20;1.00
10129;DHT22;5104;50.720;7.044;2024-03-07T08:36:11;7.20;1.00
10129;DHT22;5104;50.720;7.044;2024-03-07T08:38:40;7.30;1.00
10129;DHT22;5104;50.720;7.044;2024-03-07T08:41:09;7.30;1.00
10129;DHT22;5104;50.720;7.044;2024-03-07T08:43:37;7.50;1.00
10129;DHT22;5104;50.720;7.044;2024-03-07T08:46:04;7.50;1.00
10129;DHT22;5104;50.720;7.044;2024-03-07T08:48:31;7.60;1.00
10129;DHT22;5104;50.720;7.044;2024-03-07T08:50:58;7.70;1.00
10129;DHT22;5104;50.720;7.044;2024-03-07T08:53:25;7.70;1.00
10129;DHT22;5104;50.720;7.044;2024-03-07T08:55:53;7.70;1.00
10129;DHT22;5104;50.720;7.044;2024-03-07T08:58:20;7.70;1.00
10129;DHT22;5104;50.720;7.044;2024-03-07T09:00:47;7.50;1.00
10129;DHT22;5104;50.720;7.044;2024-03-07T09:03:14;7.50;1.00
10129;DHT22;5104;50.720;7.044;2024-03-07T09:05:44;7.40;1.00
10129;DHT22;5104;50.720;7.044;2024-03-07T09:08:12;7.40;1.00
10129;DHT22;5104;50.720;7.044;2024-03-07T09:10:39;7.40;1.00
10129;DHT22;5104;50.720;7.044;2024-03-07T09:13:09;7.10;1.00
10129;DHT22;5104;50.720;7.044;2024-03-07T09:15:36;7.30;1.00
10129;DHT22;5104;50.720;7.044;2024-03-07T09:18:04;7.40;1.00
10129;DHT22;5104;50.720;7.044;2024-03-07T09:20:31;7.20;1.00
10129;DHT22;5104;50.720;7.044;2024-03-07T09:22:58;7.20;1.00
10129;DHT22;5104;50.720;7.044;2024-03-07T09:25:26;7.30;1.00
10129;DHT22;5104;50.720;7.044;2024-03-07T09:27:53;7.50;1.00
10129;DHT22;5104;50.720;7.044;2024-03-07T09:30:23;7.60;1.00
10129;DHT22;5104;50.720;7.044;2024-03-07T09:32:53;7.80;1.00
10129;DHT22;5104;50.720;7.044;2024-03-07T09:35:21;8.20;1.00
10129;DHT22;5104;50.720;7.044;2024-03-07T09:37:48;8.40;1.00
10129;DHT22;5104;50.720;7.044;2024-03-07T09:40:15;8.50;1.00
10129;DHT22;5104;50.720;7.044;2024-03-07T09:42:43;8.60;1.00
10129;DHT22;5104;50.720;7.044;2024-03-07T09:45:14;8.90;1.00
10129;DHT22;5104;50.720;7.044;2024-03-07T09:47:46;8.90;1.00
10129;DHT22;5104;50.720;7.044;2024-03-07T09:50:15;8.90;1.00
10129;DHT22;5104;50.720;7.044;2024-03-07T09:52:46;8.60;1.00
10129;DHT22;5104;50.720;7.044;2024-03-07T09:55:15;8.70;1.00
10129;DHT22;5104;50.720;7.044;2024-03-07T09:57:43;8.60;1.00
10129;DHT22;5104;50.720;7.044;2024-03-07T10:00:12;8.50;1.00
10129;DHT22;5104;50.720;7.044;2024-03-07T10:02:54;8.50;1.00
10129;DHT22;5104;50.720;7.044;2024-03-07T10:05:23;8.40;1.00
10129;DHT22;5104;50.720;7.044;2024-03-07T10:07:51;8.60;1.00
10129;DHT22;5104;50.720;7.044;2024-03-07T10:10:18;8.60;1.00
10129;DHT22;5104;50.720;7.044;2024-03-07T10:12:45;8.90;1.00
10129;DHT22;5104;50.720;7.044;2024-03-07T10:15:12;8.30;1.00
10129;DHT22;5104;50.720;7.044;2024-03-07T10:17:40;8.10;1.00
10129;DHT22;5104;50.720;7.044;2024-03-07T10:20:12;8.20;1.00
10129;DHT22;5104;50.720;7.044;2024-03-07T10:22:40;8.40;1.00
10129;DHT22;5104;50.720;7.044;2024-03-07T10:25:07;8.60;1.00
10129;DHT22;5104;50.720;7.044;2024-03-07T10:27:36;8.70;1.00
10129;DHT22;5104;50.720;7.044;2024-03-07T10:30:05;8.60;1.00
10129;DHT22;5104;50.720;7.044;2024-03-07T10:32:34;8.80;1.00
10129;DHT22;5104;50.720;7.044;2024-03-07T10:35:01;9.00;1.00
10129;DHT22;5104;50.720;7.044;2024-03-07T10:37:34;9.10;1.00
10129;DHT22;5104;50.720;7.044;2024-03-07T10:40:01;9.20;1.00
10129;DHT22;5104;50.720;7.044;2024-03-07T10:42:45;9.10;1.00
10129;DHT22;5104;50.720;7.044;2024-03-07T10:45:17;9.20;1.00
10129;DHT22;5104;50.720;7.044;2024-03-07T10:47:49;8.90;1.00
10129;DHT22;5104;50.720;7.044;2024-03-07T10:50:23;9.00;1.00
10129;DHT22;5104;50.720;7.044;2024-03-07T10:52:58;9.00;1.00
10129;DHT22;5104;50.720;7.044;2024-03-07T10:55:34;8.80;1.00
10129;DHT22;5104;50.720;7.044;2024-03-07T10:58:09;8.80;1.00
10129;DHT22;5104;50.720;7.044;2024-03-07T11:00:39;8.70;1.00
10129;DHT22;5104;50.720;7.044;2024-03-07T11:03:11;8.60;1.00
10129;DHT22;5104;50.720;7.044;2024-03-07T11:05:39;8.90;1.00
10129;DHT22;5104;50.720;7.044;2024-03-07T11:08:10;9.00;1.00
10129;DHT22;5104;50.720;7.044;2024-03-07T11:10:38;9.30;1.00
10129;DHT22;5104;50.720;7.044;2024-03-07T11:13:07;9.20;1.00
10129;DHT22;5104;50.720;7.044;2024-03-07T11:15:35;9.20;1.00
10129;DHT22;5104;50.720;7.044;2024-03-07T11:18:03;9.10;1.00
10129;DHT22;5104;50.720;7.044;2024-03-07T11:20:35;9.30;1.00
10129;DHT22;5104;50.720;7.044;2024-03-07T11:23:26;9.30;1.00
10129;DHT22;5104;50.720;7.044;2024-03-07T11:25:54;9.40;1.00
10129;DHT22;5104;50.720;7.044;2024-03-07T11:28:28;9.80;1.00
10129;DHT22;5104;50.720;7.044;2024-03-07T11:31:07;9.90;1.00
10129;DHT22;5104;50.720;7.044;2024-03-07T11:33:37;10.20;1.00
10129;DHT22;5104;50.720;7.044;2024-03-07T11:36:07;10.30;1.00
10129;DHT22;5104;50.720;7.044;2024-03-07T11:38:36;10.60;1.00
10129;DHT22;5104;50.720;7.044;2024-03-07T11:41:04;10.70;1.00
10129;DHT22;5104;50.720;7.044;2024-03-07T11:43:34;10.70;1.00
10129;DHT22;5104;50.720;7.044;2024-03-07T11:46:01;10.70;1.00
10129;DHT22;5104;50.720;7.044;2024-03-07T11:48:28;10.50;1.00
10129;DHT22;5104;50.720;7.044;2024-03-07T11:50:56;10.60;1.00
10129;DHT22;5104;50.720;7.044;2024-03-07T11:53:23;10.70;1.00
10129;DHT22;5104;50.720;7.044;2024-03-07T11:55:51;10.70;1.00
10129;DHT22;5104;50.720;7.044;2024-03-07T11:58:20;10.40;1.00
10129;DHT22;5104;50.720;7.044;2024-03-07T12:00:49;10.20;1.00
10129;DHT22;5104;50.720;7.044;2024-03-07T12:03:18;10.50;1.00
10129;DHT22;5104;50.720;7.044;2024-03-07T12:05:47;10.40;1.00
10129;DHT22;5104;50.720;7.044;2024-03-07T12:08:14;10.50;1.00
10129;DHT22;5104;50.720;7.044;2024-03-07T12:10:43;10.40;1.00
10129;DHT22;5104;50.720;7.044;2024-03-07T12:13:12;10.50;1.00
10129;DHT22;5104;50.720;7.044;2024-03-07T12:15:42;10.60;1.00
10129;DHT22;5104;50.720;7.044;2024-03-07T12:18:10;10.60;1.00
10129;DHT22;5104;50.720;7.044;2024-03-07T12:20:40;11.10;1.00
10129;DHT22;5104;50.720;7.044;2024-03-07T12:23:12;11.60;1.00
10129;DHT22;5104;50.720;7.044;2024-03-07T12:25:39;11.40;1.00
10129;DHT22;5104;50.720;7.044;2024-03-07T12:28:08;11.20;1.00
10129;DHT22;5104;50.720;7.044;2024-03-07T12:30:48;11.70;1.00
10129;DHT22;5104;50.720;7.044;2024-03-07T12:33:19;11.50;1.00
10129;DHT22;5104;50.720;7.044;2024-03-07T12:35:46;11.50;1.00
10129;DHT22;5104;50.720;7.044;2024-03-07T12:38:15;11.70;1.00
10129;DHT22;5104;50.720;7.044;2024-03-07T12:40:43;11.70;1.00
10129;DHT22;5104;50.720;7.044;2024-03-07T12:43:16;12.00;1.00
10129;DHT22;5104;50.720;7.044;2024-03-07T12:45:47;11.60;1.00
10129;DHT22;5104;50.720;7.044;2024-03-07T12:48:14;11.80;1.00
10129;DHT22;5104;50.720;7.044;2024-03-07T12:50:44;11.70;1.00
10129;DHT22;5104;50.720;7.044;2024-03-07T12:53:12;11.10;1.00
10129;DHT22;5104;50.720;7.044;2024-03-07T12:55:39;11.40;1.00
10129;DHT22;5104;50.720;7.044;2024-03-07T12:58:08;11.30;1.00
10129;DHT22;5104;50.720;7.044;2024-03-07T13:00:37;11.60;1.00
10129;DHT22;5104;50.720;7.044;2024-03-07T13:03:06;12.10;1.00
10129;DHT22;5104;50.720;7.044;2024-03-07T13:05:33;11.90;1.00
10129;DHT22;5104;50.720;7.044;2024-03-07T13:08:00;11.90;1.00
10129;DHT22;5104;50.720;7.044;2024-03-07T13:10:26;11.60;1.00
10129;DHT22;5104;50.720;7.044;2024-03-07T13:12:53;11.90;1.00
10129;DHT22;5104;50.720;7.044;2024-03-07T13:15:20;12.10;1.00
10129;DHT22;5104;50.720;7.044;2024-03-07T13:17:50;11.50;1.00
10129;DHT22;5104;50.720;7.044;2024-03-07T13:20:20;11.60;1.00
10129;DHT22;5104;50.720;7.044;2024-03-07T13:22:52;11.70;1.00
10129;DHT22;5104;50.720;7.044;2024-03-07T13:25:22;11.50;1.00
10129;DHT22;5104;50.720;7.044;2024-03-07T13:27:55;11.30;1.00
10129;DHT22;5104;50.720;7.044;2024-03-07T13:30:23;11.40;1.00
10129;DHT22;5104;50.720;7.044;2024-03-07T13:32:54;11.00;1.00
10129;DHT22;5104;50.720;7.044;2024-03-07T13:35:22;10.90;1.00
10129;DHT22;5104;50.720;7.044;2024-03-07T13:37:51;10.70;1.00
10129;DHT22;5104;50.720;7.044;2024-03-07T13:40:19;10.70;1.00
10129;DHT22;5104;50.720;7.044;2024-03-07T13:42:50;10.80;1.00
10129;DHT22;5104;50.720;7.044;2024-03-07T13:45:20;10.90;1.00
10129;DHT22;5104;50.720;7.044;2024-03-07T13:47:48;10.80;1.00
10129;DHT22;5104;50.720;7.044;2024-03-07T13:50:16;10.80;1.00
10129;DHT22;5104;50.720;7.044;2024-03-07T13:52:46;10.70;1.00
10129;DHT22;5104;50.720;7.044;2024-03-07T13:55:32;10.70;1.00
10129;DHT22;5104;50.720;7.044;2024-03-07T13:58:02;10.50;1.00
10129;DHT22;5104;50.720;7.044;2024-03-07T14:00:42;10.80;1.00
10129;DHT22;5104;50.720;7.044;2024-03-07T14:03:27;11.10;1.00
10129;DHT22;5104;50.720;7.044;2024-03-07T14:06:00;11.10;1.00
10129;DHT22;5104;50.720;7.044;2024-03-07T14:12:16;11.20;1.00
10129;DHT22;5104;50.720;7.044;2024-03-07T14:15:31;11.20;1.00
10129;DHT22;5104;50.720;7.044;2024-03-07T14:27:34;10.90;1.00
10129;DHT22;5104;50.720;7.044;2024-03-07T14:30:19;10.80;1.00
10129;DHT22;5104;50.720;7.044;2024-03-07T14:32:50;10.80;1.00
10129;DHT22;5104;50.720;7.044;2024-03-07T14:35:23;10.60;1.00
10129;DHT22;5104;50.720;7.044;2024-03-07T14:38:01;10.40;1.00
10129;DHT22;5104;50.720;7.044;2024-03-07T14:40:31;10.50;1.00
10129;DHT22;5104;50.720;7.044;2024-03-07T14:43:03;10.40;1.00
10129;DHT22;5104;50.720;7.044;2024-03-07T14:45:36;10.50;1.00
10129;DHT22;5104;50.720;7.044;2024-03-07T14:48:04;10.40;1.00
10129;DHT22;5104;50.720;7.044;2024-03-07T14:50:36;10.30;1.00
10129;DHT22;5104;50.720;7.044;2024-03-07T14:53:04;10.00;1.00
10129;DHT22;5104;50.720;7.044;2024-03-07T14:55:31;9.80;1.00
10129;DHT22;5104;50.720;7.044;2024-03-07T14:58:00;9.70;1.00
10129;DHT22;5104;50.720;7.044;2024-03-07T15:00:27;9.60;1.00
10129;DHT22;5104;50.720;7.044;2024-03-07T15:03:00;9.60;1.00
10129;DHT22;5104;50.720;7.044;2024-03-07T15:05:27;9.70;1.00
10129;DHT22;5104;50.720;7.044;2024-03-07T15:07:55;9.80;1.00
10129;DHT22;5104;50.720;7.044;2024-03-07T15:10:25;9.80;1.00
10129;DHT22;5104;50.720;7.044;2024-03-07T15:12:53;9.80;1.00
10129;DHT22;5104;50.720;7.044;2024-03-07T15:15:21;9.60;1.00
10129;DHT22;5104;50.720;7.044;2024-03-07T15:17:50;9.70;1.00
10129;DHT22;5104;50.720;7.044;2024-03-07T15:20:17;9.70;1.00
10129;DHT22;5104;50.720;7.044;2024-03-07T15:22:50;9.80;1.00
10129;DHT22;5104;50.720;7.044;2024-03-07T15:25:18;9.80;1.00
10129;DHT22;5104;50.720;7.044;2024-03-07T15:27:45;9.60;1.00
10129;DHT22;5104;50.720;7.044;2024-03-07T15:30:15;9.70;1.00
10129;DHT22;5104;50.720;7.044;2024-03-07T15:32:44;9.80;1.00
10129;DHT22;5104;50.720;7.044;2024-03-07T15:35:12;9.80;1.00
10129;DHT22;5104;50.720;7.044;2024-03-07T15:37:43;9.80;1.00
10129;DHT22;5104;50.720;7.044;2024-03-07T15:40:12;9.80;1.00
10129;DHT22;5104;50.720;7.044;2024-03-07T15:42:40;9.90;1.00
10129;DHT22;5104;50.720;7.044;2024-03-07T15:45:07;9.80;1.00
10129;DHT22;5104;50.720;7.044;2024-03-07T15:47:44;9.80;1.00
10129;DHT22;5104;50.720;7.044;2024-03-07T15:50:11;9.80;1.00
10129;DHT22;5104;50.720;7.044;2024-03-07T15:52:39;9.80;1.00
10129;DHT22;5104;50.720;7.044;2024-03-07T15:55:07;9.60;1.00
10129;DHT22;5104;50.720;7.044;2024-03-07T15:57:42;9.50;1.00
10129;DHT22;5104;50.720;7.044;2024-03-07T16:00:10;9.30;1.00
10129;DHT22;5104;50.720;7.044;2024-03-07T16:02:53;9.30;1.00
10129;DHT22;5104;50.720;7.044;2024-03-07T16:05:22;9.20;1.00
10129;DHT22;5104;50.720;7.044;2024-03-07T16:07:50;9.30;1.00
10129;DHT22;5104;50.720;7.044;2024-03-07T16:10:18;9.40;1.00
10129;DHT22;5104;50.720;7.044;2024-03-07T16:12:45;9.30;1.00
10129;DHT22;5104;50.720;7.044;2024-03-07T16:15:12;9.30;1.00
10129;DHT22;5104;50.720;7.044;2024-03-07T16:17:39;9.20;1.00
10129;DHT22;5104;50.720;7.044;2024-03-07T16:20:08;9.30;1.00
10129;DHT22;5104;50.720;7.044;2024-03-07T16:22:40;9.30;1.00
10129;DHT22;5104;50.720;7.044;2024-03-07T16:25:08;9.40;1.00
10129;DHT22;5104;50.720;7.044;2024-03-07T16:27:36;9.40;1.00
10129;DHT22;5104;50.720;7.044;2024-03-07T16:30:04;9.40;1.00
10129;DHT22;5104;50.720;7.044;2024-03-07T16:32:33;9.50;1.00